Time;durP1;ratioP1;P1;durP2;ratioP2;P2;SDS_P1;SDS_P2;PMS_P1;PMS_P2;Temp;Humidity;BMP_temperature;BMP_pressure;BME280_temperature;BME280_humidity;BME280_pressure;Samples;Min_cycle;Max_cycle;Signal;HPM_P1;HPM_P2
2022/11/24 00:00:14;;;;;;;33.63;16.97;;;;;;;2.96;100.00;100208.13;5054304;28;20481;-68
2022/11/24 00:02:41;;;;;;;37.90;15.23;;;;;;;2.98;100.00;100208.69;5066504;28;20954;-66
2022/11/24 00:05:08;;;;;;;40.97;16.77;;;;;;;3.06;100.00;100206.59;5059034;28;20457;-69
2022/11/24 00:07:35;;;;;;;46.93;19.53;;;;;;;3.06;100.00;100212.75;5072108;28;20492;-69
2022/11/24 00:10:04;;;;;;;38.33;17.70;;;;;;;3.12;100.00;100208.22;5071783;28;20493;-67
2022/11/24 00:12:30;;;;;;;37.03;17.10;;;;;;;3.19;100.00;100211.47;5066521;28;20512;-67
2022/11/24 00:14:57;;;;;;;38.23;16.23;;;;;;;3.20;100.00;100211.19;5066119;28;20493;-67
2022/11/24 00:17:24;;;;;;;44.47;17.30;;;;;;;3.27;100.00;100208.28;5071514;28;20513;-67
2022/11/24 00:19:50;;;;;;;41.57;17.60;;;;;;;3.27;100.00;100203.72;5079202;28;20996;-67
2022/11/24 00:22:17;;;;;;;30.93;15.87;;;;;;;3.34;100.00;100202.69;5059502;28;20911;-66
2022/11/24 00:24:44;;;;;;;48.97;17.03;;;;;;;3.33;100.00;100203.75;5072404;28;20484;-67
2022/11/24 00:27:12;;;;;;;45.47;19.10;;;;;;;3.34;100.00;100203.50;5071169;28;20457;-67
2022/11/24 00:29:38;;;;;;;37.20;18.60;;;;;;;3.34;100.00;100206.16;5071961;28;20490;-68
2022/11/24 00:32:06;;;;;;;35.77;16.50;;;;;;;3.35;100.00;100209.66;5073313;28;20500;-68
2022/11/24 00:34:32;;;;;;;48.97;18.37;;;;;;;3.39;100.00;100210.72;5074428;28;20461;-68
2022/11/24 00:36:59;;;;;;;40.53;16.90;;;;;;;3.33;100.00;100204.56;5070487;28;20480;-71
2022/11/24 00:39:26;;;;;;;41.47;19.23;;;;;;;3.38;100.00;100206.44;5064027;28;20876;-71
2022/11/24 00:41:52;;;;;;;35.80;16.90;;;;;;;3.34;100.00;100200.00;5072220;28;20508;-68
2022/11/24 00:44:21;;;;;;;44.23;18.40;;;;;;;3.25;100.00;100197.03;5069164;28;20508;-68
2022/11/24 00:46:47;;;;;;;47.00;19.57;;;;;;;3.32;100.00;100202.13;5064949;28;20818;-68
2022/11/24 00:49:14;;;;;;;42.00;17.20;;;;;;;3.31;100.00;100212.03;5075232;28;20511;-68
2022/11/24 00:51:41;;;;;;;43.70;15.80;;;;;;;3.32;100.00;100210.16;5075136;28;20512;-68
2022/11/24 00:54:07;;;;;;;47.37;19.53;;;;;;;3.21;100.00;100212.00;5074423;28;20866;-68
2022/11/24 00:56:34;;;;;;;45.53;18.50;;;;;;;3.21;100.00;100212.81;5055546;28;20513;-68
2022/11/24 00:59:01;;;;;;;41.93;18.63;;;;;;;3.28;100.00;100207.22;5062781;28;20506;-71
2022/11/24 01:01:30;;;;;;;48.43;19.20;;;;;;;3.32;100.00;100213.66;5064983;28;20482;-68
2022/11/24 01:04:00;;;;;;;43.90;19.47;;;;;;;3.43;100.00;100219.84;5067262;28;21009;-68
2022/11/24 01:06:28;;;;;;;39.63;16.50;;;;;;;3.46;100.00;100222.00;5060717;28;20903;-68
2022/11/24 01:08:56;;;;;;;40.90;18.43;;;;;;;3.46;100.00;100233.53;5074584;28;20871;-69
2022/11/24 01:13:51;;;;;;;39.87;18.53;;;;;;;3.47;100.00;100224.41;5108223;22;20554;-77
2022/11/24 01:16:21;;;;;;;34.10;15.77;;;;;;;3.46;100.00;100222.00;5104559;28;20529;-77
2022/11/24 01:18:49;;;;;;;54.50;18.07;;;;;;;3.44;100.00;100226.81;5103429;28;20503;-77
2022/11/24 01:21:16;;;;;;;41.57;17.47;;;;;;;3.47;100.00;100220.94;5103936;28;20505;-77
2022/11/24 01:23:43;;;;;;;38.13;17.03;;;;;;;3.50;100.00;100225.78;5099039;28;20528;-77
2022/11/24 01:26:12;;;;;;;53.47;18.40;;;;;;;3.45;100.00;100223.06;5108579;28;20465;-77
2022/11/24 01:28:39;;;;;;;49.67;18.87;;;;;;;3.46;100.00;100222.81;5106316;28;20528;-77
2022/11/24 01:31:07;;;;;;;38.70;17.77;;;;;;;3.48;100.00;100227.91;5115198;28;20459;-77
2022/11/24 01:33:36;;;;;;;35.23;16.93;;;;;;;3.48;100.00;100219.88;5101725;28;20449;-77
2022/11/24 01:36:05;;;;;;;39.90;17.00;;;;;;;3.49;100.00;100224.13;5108331;28;20509;-77
2022/11/24 01:38:32;;;;;;;45.87;17.30;;;;;;;3.53;100.00;100227.91;5095061;28;20599;-77
2022/11/24 01:41:03;;;;;;;40.20;17.90;;;;;;;3.43;100.00;100236.72;5094672;28;20464;-77
2022/11/24 01:43:30;;;;;;;32.70;15.83;;;;;;;3.50;100.00;100242.63;5101078;28;20831;-77
2022/11/24 01:45:58;;;;;;;40.40;16.77;;;;;;;3.40;100.00;100241.78;5116160;28;20469;-76
2022/11/24 01:48:30;;;;;;;37.23;16.30;;;;;;;3.33;100.00;100242.03;5109481;28;20505;-77
2022/11/24 01:51:03;;;;;;;38.17;15.60;;;;;;;3.24;100.00;100239.06;5098550;28;20456;-77
2022/11/24 01:53:31;;;;;;;45.90;17.07;;;;;;;3.25;100.00;100243.34;5094708;28;20828;-77
2022/11/24 01:55:59;;;;;;;30.33;15.20;;;;;;;3.22;100.00;100243.84;5095185;28;20513;-77
2022/11/24 01:58:30;;;;;;;36.57;15.93;;;;;;;3.20;100.00;100256.69;5112597;28;20483;-77
2022/11/24 02:00:57;;;;;;;42.80;16.17;;;;;;;3.16;100.00;100246.78;5100586;28;20976;-77
2022/11/24 02:03:28;;;;;;;44.93;16.43;;;;;;;3.14;100.00;100252.38;5094731;28;20490;-77
2022/11/24 02:06:00;;;;;;;35.03;14.33;;;;;;;3.15;100.00;100245.97;5096970;28;20641;-78
2022/11/24 02:08:35;;;;;;;34.17;15.50;;;;;;;3.14;100.00;100249.69;5106908;28;20472;-79
2022/11/24 02:11:04;;;;;;;31.70;14.53;;;;;;;3.17;100.00;100256.41;5095048;28;20529;-77
2022/11/24 02:13:33;;;;;;;35.90;16.30;;;;;;;3.19;100.00;100259.63;5094489;28;20465;-76
2022/11/24 02:16:00;;;;;;;42.67;15.93;;;;;;;3.23;100.00;100261.53;5105277;28;20448;-76
2022/11/24 02:18:27;;;;;;;38.47;14.43;;;;;;;3.26;100.00;100257.50;5097934;28;20899;-77
2022/11/24 02:20:54;;;;;;;43.97;16.17;;;;;;;3.24;100.00;100257.78;5094974;28;20486;-76
2022/11/24 02:23:24;;;;;;;40.00;17.03;;;;;;;3.19;100.00;100257.75;5110690;28;20455;-79
2022/11/24 02:26:03;;;;;;;40.70;16.30;;;;;;;3.24;100.00;100255.09;5097167;28;20502;-77
2022/11/24 02:28:31;;;;;;;37.23;17.03;;;;;;;3.28;100.00;100252.72;5094541;28;20476;-77
2022/11/24 02:30:59;;;;;;;41.73;17.10;;;;;;;3.33;100.00;100265.31;5094742;28;20441;-77
2022/11/24 02:33:27;;;;;;;42.20;16.93;;;;;;;3.32;100.00;100258.34;5110260;28;20807;-79
2022/11/24 02:35:54;;;;;;;34.70;14.70;;;;;;;3.28;100.00;100261.56;5115335;28;20448;-77
2022/11/24 02:38:30;;;;;;;47.67;17.10;;;;;;;3.27;100.00;100259.13;5096338;28;20484;-77
2022/11/24 02:40:57;;;;;;;38.20;16.20;;;;;;;3.22;100.00;100262.56;5108525;28;20959;-76
2022/11/24 02:43:25;;;;;;;30.70;15.83;;;;;;;3.21;100.00;100265.53;5094522;28;20557;-77
2022/11/24 02:45:53;;;;;;;41.60;17.40;;;;;;;3.13;100.00;100258.78;5094144;28;20470;-77
2022/11/24 02:48:20;;;;;;;42.00;16.47;;;;;;;3.15;100.00;100258.53;5093896;28;20472;-76
2022/11/24 02:50:46;;;;;;;37.83;15.00;;;;;;;3.14;100.00;100254.25;5094283;28;20467;-76
2022/11/24 02:53:13;;;;;;;31.53;14.70;;;;;;;3.15;100.00;100258.53;5110623;28;20861;-75
2022/11/24 02:55:40;;;;;;;41.47;16.00;;;;;;;3.17;100.00;100265.22;5094213;28;20449;-74
2022/11/24 02:58:07;;;;;;;40.30;17.47;;;;;;;3.19;100.00;100263.13;5093932;28;20488;-74
2022/11/24 03:00:33;;;;;;;34.87;13.97;;;;;;;3.24;100.00;100271.16;5094107;28;20464;-75
2022/11/24 03:03:02;;;;;;;32.40;15.50;;;;;;;3.24;100.00;100267.69;5093927;28;20871;-76
2022/11/24 03:05:28;;;;;;;45.50;16.30;;;;;;;3.30;100.00;100266.63;5104796;28;20460;-76
2022/11/24 03:07:55;;;;;;;40.13;17.33;;;;;;;3.27;100.00;100259.91;5093595;28;20469;-76
2022/11/24 03:10:23;;;;;;;46.43;18.93;;;;;;;3.35;100.00;100265.84;5102285;28;20456;-77
2022/11/24 03:12:50;;;;;;;45.17;17.33;;;;;;;3.39;100.00;100277.66;5101193;28;20467;-76
2022/11/24 03:15:16;;;;;;;33.10;17.00;;;;;;;3.33;100.00;100278.72;5094013;28;20937;-76
2022/11/24 03:17:43;;;;;;;42.20;18.87;;;;;;;3.31;100.00;100276.28;5093832;28;20546;-76
2022/11/24 03:20:12;;;;;;;42.63;15.53;;;;;;;3.39;100.00;100285.69;5094040;28;20452;-76
2022/11/24 03:22:40;;;;;;;47.77;17.20;;;;;;;3.37;100.00;100279.81;5100891;28;20466;-76
2022/11/24 03:25:07;;;;;;;42.97;17.17;;;;;;;3.41;100.00;100280.88;5095660;28;20460;-76
2022/11/24 03:27:34;;;;;;;27.77;13.80;;;;;;;3.41;100.00;100288.88;5092983;28;20472;-76
2022/11/24 03:30:01;;;;;;;32.80;16.00;;;;;;;3.35;100.00;100281.91;5102682;28;20460;-77
2022/11/24 03:32:28;;;;;;;42.37;16.77;;;;;;;3.36;100.00;100281.66;5092984;28;20547;-77
2022/11/24 03:34:54;;;;;;;35.47;15.30;;;;;;;3.31;100.00;100278.16;5103896;28;20948;-77
2022/11/24 03:37:22;;;;;;;45.00;16.13;;;;;;;3.21;100.00;100282.38;5112837;28;21005;-76
2022/11/24 03:39:49;;;;;;;35.70;14.30;;;;;;;3.22;100.00;100283.97;5105206;28;20464;-77
2022/11/24 03:42:16;;;;;;;31.00;14.40;;;;;;;3.20;100.00;100280.78;5093295;28;20521;-77
2022/11/24 03:44:43;;;;;;;28.60;13.73;;;;;;;3.13;100.00;100284.75;5104040;28;20513;-77
2022/11/24 03:47:11;;;;;;;33.20;14.97;;;;;;;3.12;100.00;100289.28;5106933;28;20456;-79
2022/11/24 03:49:39;;;;;;;33.83;15.10;;;;;;;3.09;100.00;100300.50;5113366;28;20451;-76
2022/11/24 03:52:05;;;;;;;32.63;14.97;;;;;;;3.02;100.00;100298.06;5106519;28;20467;-76
2022/11/24 03:54:34;;;;;;;39.00;15.57;;;;;;;3.00;100.00;100302.06;5093185;28;20988;-76
2022/11/24 03:57:00;;;;;;;38.20;13.80;;;;;;;2.99;100.00;100309.28;5095680;28;20487;-77
2022/11/24 03:59:27;;;;;;;35.63;15.40;;;;;;;3.01;100.00;100304.47;5111209;28;20470;-78
2022/11/24 04:01:54;;;;;;;31.87;14.63;;;;;;;3.00;100.00;100307.41;5113444;28;20482;-79
2022/11/24 04:04:21;;;;;;;34.20;14.60;;;;;;;3.06;100.00;100318.97;5103197;28;20455;-79
2022/11/24 04:06:47;;;;;;;34.47;14.73;;;;;;;3.07;100.00;100308.00;5105289;28;20494;-76
2022/11/24 04:09:14;;;;;;;29.73;13.70;;;;;;;3.05;100.00;100310.09;5110182;28;20627;-77
2022/11/24 04:14:26;;;;;;;33.20;14.43;;;;;;;3.08;100.00;100309.59;5106406;28;20964;-77
2022/11/24 04:16:53;;;;;;;39.67;15.03;;;;;;;3.06;100.00;100300.25;5096705;28;20543;-77
2022/11/24 04:19:20;;;;;;;36.73;14.40;;;;;;;3.07;100.00;100291.94;5097621;28;20484;-76
2022/11/24 04:21:46;;;;;;;43.00;16.43;;;;;;;3.07;100.00;100302.66;5114088;28;20526;-77
2022/11/24 04:24:13;;;;;;;36.70;15.83;;;;;;;3.08;100.00;100304.25;5101545;28;20466;-75
2022/11/24 04:26:40;;;;;;;33.10;15.53;;;;;;;3.12;100.00;100315.25;5100085;28;20459;-77
2022/11/24 04:29:09;;;;;;;55.33;16.33;;;;;;;3.16;100.00;100317.16;5115186;28;20914;-76
2022/11/24 04:31:36;;;;;;;43.57;16.00;;;;;;;3.15;100.00;100325.44;5099678;28;20548;-75
2022/11/24 04:34:02;;;;;;;34.17;14.97;;;;;;;3.15;100.00;100320.91;5116602;28;20530;-78
2022/11/24 04:36:29;;;;;;;40.90;15.10;;;;;;;3.10;100.00;100326.22;5115265;28;20489;-77
2022/11/24 04:38:55;;;;;;;36.23;16.60;;;;;;;3.04;100.00;100336.06;5098067;28;20940;-79
2022/11/24 04:41:22;;;;;;;50.20;16.57;;;;;;;3.04;100.00;100351.31;5097075;28;20527;-78
2022/11/24 04:43:49;;;;;;;34.70;15.67;;;;;;;3.06;100.00;100343.84;5113654;28;20588;-75
2022/11/24 04:46:17;;;;;;;45.57;15.67;;;;;;;3.03;100.00;100355.06;5101720;28;20460;-75
2022/11/24 04:48:44;;;;;;;47.37;16.67;;;;;;;3.08;100.00;100349.72;5111751;28;20558;-78
2022/11/24 04:51:13;;;;;;;39.37;14.17;;;;;;;3.05;100.00;100347.56;5104514;28;20487;-79
2022/11/24 04:53:39;;;;;;;37.60;15.47;;;;;;;3.10;100.00;100352.97;5103479;28;20550;-79
2022/11/24 04:56:07;;;;;;;38.63;15.60;;;;;;;3.08;100.00;100357.75;5096570;28;21074;-75
2022/11/24 04:58:34;;;;;;;34.67;13.70;;;;;;;3.08;100.00;100363.09;5110264;28;20500;-78
2022/11/24 05:01:00;;;;;;;35.27;15.57;;;;;;;3.04;100.00;100372.72;5116014;28;20551;-79
2022/11/24 05:03:28;;;;;;;40.03;14.80;;;;;;;3.07;100.00;100364.19;5116365;28;20907;-79
2022/11/24 05:05:58;;;;;;;33.27;13.37;;;;;;;3.07;100.00;100369.53;5112436;28;20456;-79
2022/11/24 05:08:25;;;;;;;35.60;15.87;;;;;;;2.97;100.00;100372.13;5117718;28;20499;-78
2022/11/24 05:10:51;;;;;;;32.63;13.70;;;;;;;2.94;100.00;100369.97;5109880;28;20552;-79
2022/11/24 05:13:18;;;;;;;34.37;14.17;;;;;;;3.00;100.00;100371.59;5114489;28;20562;-78
2022/11/24 05:15:45;;;;;;;34.17;15.10;;;;;;;2.97;100.00;100369.47;5108001;28;20460;-79
2022/11/24 05:18:14;;;;;;;27.90;13.33;;;;;;;2.98;100.00;100376.41;5097530;28;20579;-79
2022/11/24 05:20:43;;;;;;;34.60;13.93;;;;;;;3.07;100.00;100380.22;5109098;28;21011;-79
2022/11/24 05:23:10;;;;;;;34.23;15.10;;;;;;;3.00;100.00;100383.09;5104893;28;20467;-79
2022/11/24 05:25:37;;;;;;;33.20;15.33;;;;;;;3.00;100.00;100383.09;5115496;28;20551;-79
2022/11/24 05:28:07;;;;;;;33.37;14.20;;;;;;;2.99;100.00;100384.19;5097698;28;20551;-79
2022/11/24 05:30:34;;;;;;;33.27;13.30;;;;;;;2.93;100.00;100387.09;5097808;28;20824;-76
2022/11/24 05:33:05;;;;;;;31.57;12.23;;;;;;;2.84;100.00;100389.41;5095692;28;20885;-75
2022/11/24 05:35:32;;;;;;;29.90;13.33;;;;;;;2.85;100.00;100395.56;5095935;28;20464;-76
2022/11/24 05:38:00;;;;;;;39.27;14.13;;;;;;;2.86;100.00;100391.81;5095377;28;20603;-76
2022/11/24 05:40:26;;;;;;;35.27;13.37;;;;;;;2.84;100.00;100400.13;5095363;28;20547;-75
2022/11/24 05:42:53;;;;;;;33.70;14.43;;;;;;;2.82;100.00;100396.06;5099284;28;20535;-77
2022/11/24 05:45:21;;;;;;;32.17;14.10;;;;;;;2.67;100.00;100397.56;5094771;28;20894;-78
2022/11/24 05:47:49;;;;;;;26.70;13.03;;;;;;;2.72;100.00;100405.63;5095148;28;20543;-77
2022/11/24 05:50:18;;;;;;;27.47;13.67;;;;;;;2.66;100.00;100401.28;5095789;28;20519;-77
2022/11/24 05:52:44;;;;;;;29.83;12.27;;;;;;;2.69;100.00;100403.44;5095578;28;20531;-77
2022/11/24 05:55:14;;;;;;;37.77;13.30;;;;;;;2.62;100.00;100402.06;5094782;28;20543;-77
2022/11/24 05:57:41;;;;;;;34.53;13.90;;;;;;;2.64;100.00;100403.41;5094974;28;21343;-76
2022/11/24 06:00:11;;;;;;;27.70;11.90;;;;;;;2.64;100.00;100407.94;5094905;28;20520;-77
2022/11/24 06:02:37;;;;;;;32.97;15.33;;;;;;;2.65;100.00;100406.88;5095466;28;20515;-77
2022/11/24 06:05:05;;;;;;;32.67;15.10;;;;;;;2.73;100.00;100406.41;5095340;28;20551;-79
2022/11/24 06:07:31;;;;;;;30.27;14.20;;;;;;;2.80;100.00;100422.28;5096151;28;20892;-78
2022/11/24 06:09:58;;;;;;;30.23;13.77;;;;;;;2.76;100.00;100421.97;5095482;28;20448;-78
2022/11/24 06:12:26;;;;;;;34.80;13.97;;;;;;;2.84;100.00;100423.38;5094286;28;20542;-77
2022/11/24 06:14:52;;;;;;;23.93;12.00;;;;;;;2.81;100.00;100426.56;5094931;28;20440;-77
2022/11/24 06:17:19;;;;;;;30.67;13.00;;;;;;;2.86;100.00;100430.06;5096716;28;20523;-78
2022/11/24 06:19:48;;;;;;;39.80;14.83;;;;;;;2.81;100.00;100426.56;5097131;28;20560;-78
2022/11/24 06:22:16;;;;;;;28.97;13.80;;;;;;;2.84;100.00;100434.09;5095061;28;20494;-78
2022/11/24 06:24:43;;;;;;;30.70;12.80;;;;;;;2.85;100.00;100443.72;5095721;28;20466;-78
2022/11/24 06:27:09;;;;;;;33.13;13.97;;;;;;;2.80;100.00;100444.47;5094950;28;20602;-79
2022/11/24 06:29:37;;;;;;;31.57;13.67;;;;;;;2.74;100.00;100445.47;5095146;28;20705;-78
2022/11/24 06:32:04;;;;;;;37.53;14.77;;;;;;;2.72;100.00;100439.56;5095183;28;20532;-78
2022/11/24 06:34:31;;;;;;;33.43;13.90;;;;;;;2.66;100.00;100443.28;5095230;28;20878;-78
2022/11/24 06:36:58;;;;;;;32.57;12.93;;;;;;;2.61;100.00;100449.38;5094736;28;20524;-75
2022/11/24 06:39:24;;;;;;;34.40;13.90;;;;;;;2.59;100.00;100446.13;5094129;28;20488;-75
2022/11/24 06:41:51;;;;;;;29.30;12.30;;;;;;;2.54;100.00;100451.41;5095697;28;20527;-78
2022/11/24 06:44:17;;;;;;;45.43;16.87;;;;;;;2.58;100.00;100449.88;5095873;28;20875;-77
2022/11/24 06:46:45;;;;;;;39.30;15.90;;;;;;;2.54;100.00;100451.41;5094981;28;20519;-78
2022/11/24 06:49:12;;;;;;;32.47;15.63;;;;;;;2.58;100.00;100454.41;5095340;28;20535;-78
2022/11/24 06:51:39;;;;;;;33.67;14.30;;;;;;;2.58;100.00;100460.56;5096151;28;20874;-79
2022/11/24 06:54:06;;;;;;;33.57;12.93;;;;;;;2.63;100.00;100460.59;5095937;28;20476;-78
2022/11/24 06:56:33;;;;;;;35.27;16.00;;;;;;;2.69;100.00;100466.81;5096544;28;20436;-78
2022/11/24 06:59:01;;;;;;;28.77;13.53;;;;;;;2.72;100.00;100467.13;5096161;28;20551;-79
2022/11/24 07:01:29;;;;;;;29.33;12.20;;;;;;;2.81;100.00;100464.00;5096177;28;20432;-79
2022/11/24 07:03:58;;;;;;;37.63;14.30;;;;;;;2.89;100.00;100466.22;5096119;28;20476;-79
2022/11/24 07:06:25;;;;;;;27.00;12.67;;;;;;;2.96;100.00;100466.81;5095796;28;20531;-77
2022/11/24 07:08:53;;;;;;;29.40;13.97;;;;;;;3.00;100.00;100467.91;5094044;28;20564;-77
2022/11/24 07:11:22;;;;;;;32.50;13.47;;;;;;;3.07;100.00;100473.88;5094113;28;20444;-75
2022/11/24 07:13:50;;;;;;;33.67;13.03;;;;;;;3.08;100.00;100477.38;5093713;28;20582;-77
2022/11/24 07:16:18;;;;;;;31.50;13.80;;;;;;;3.07;100.00;100481.91;5094146;28;20440;-75
2022/11/24 07:18:46;;;;;;;52.30;14.30;;;;;;;3.11;100.00;100491.03;5094262;28;20586;-77
2022/11/24 07:21:18;;;;;;;31.37;14.53;;;;;;;3.13;100.00;100485.44;5094631;28;20444;-77
2022/11/24 07:23:48;;;;;;;28.10;12.53;;;;;;;3.12;100.00;100489.97;5093517;28;20829;-77
2022/11/24 07:26:15;;;;;;;24.60;11.73;;;;;;;3.14;100.00;100484.38;5093653;28;20497;-77
2022/11/24 07:28:41;;;;;;;28.63;12.83;;;;;;;3.16;100.00;100482.25;5093351;28;20973;-77
2022/11/24 07:31:10;;;;;;;33.37;13.27;;;;;;;3.13;100.00;100477.41;5093734;28;20439;-75
2022/11/24 07:33:38;;;;;;;33.30;13.17;;;;;;;3.13;100.00;100483.56;5093558;28;20933;-75
2022/11/24 07:36:06;;;;;;;34.80;13.43;;;;;;;3.13;100.00;100488.09;5094714;28;20868;-79
2022/11/24 07:38:35;;;;;;;33.30;14.60;;;;;;;3.06;100.00;100496.34;5095057;28;20531;-78
2022/11/24 07:41:02;;;;;;;26.83;13.17;;;;;;;3.07;100.00;100506.00;5095311;28;20472;-79
2022/11/24 07:43:30;;;;;;;40.07;14.20;;;;;;;3.06;100.00;100503.56;5098937;28;20523;-75
2022/11/24 07:45:57;;;;;;;28.07;14.83;;;;;;;3.10;100.00;100504.66;5097728;28;21033;-75
2022/11/24 07:48:24;;;;;;;28.80;11.97;;;;;;;3.16;100.00;100506.34;5098266;28;21068;-77
2022/11/24 07:50:50;;;;;;;29.97;14.13;;;;;;;3.16;100.00;100511.69;5097783;28;20445;-75
2022/11/24 07:53:17;;;;;;;28.50;12.50;;;;;;;3.21;100.00;100523.25;5097907;28;20531;-77
2022/11/24 07:55:53;;;;;;;26.63;12.13;;;;;;;3.18;100.00;100518.38;5097374;28;20515;-76
2022/11/24 07:58:19;;;;;;;37.40;13.77;;;;;;;3.19;100.00;100512.00;5097404;28;20625;-75
2022/11/24 08:00:46;;;;;;;28.60;13.80;;;;;;;3.26;100.00;100515.25;5097280;28;20599;-76
2022/11/24 08:03:13;;;;;;;23.43;11.87;;;;;;;3.32;100.00;100513.47;5097183;28;20462;-76
2022/11/24 08:05:39;;;;;;;28.37;12.33;;;;;;;3.34;100.00;100516.66;5097617;28;20459;-74
2022/11/24 08:08:06;;;;;;;23.93;10.97;;;;;;;3.40;100.00;100520.19;5097739;28;20469;-74
2022/11/24 08:10:32;;;;;;;26.80;12.23;;;;;;;3.35;100.00;100512.13;5099919;28;20539;-78
2022/11/24 08:13:01;;;;;;;22.57;11.17;;;;;;;3.40;100.00;100522.88;5098243;28;20451;-79
2022/11/24 08:15:28;;;;;;;27.37;10.57;;;;;;;3.42;100.00;100523.44;5098344;28;20432;-77
2022/11/24 08:17:55;;;;;;;24.90;12.00;;;;;;;3.49;100.00;100535.53;5097358;28;20543;-74
2022/11/24 08:20:21;;;;;;;28.40;12.80;;;;;;;3.46;100.00;100530.69;5097128;28;20811;-76
2022/11/24 08:22:48;;;;;;;26.83;12.07;;;;;;;3.52;100.00;100529.66;5096849;28;20441;-76
2022/11/24 08:25:16;;;;;;;21.77;11.57;;;;;;;3.54;100.00;100537.44;5096690;28;20976;-76
2022/11/24 08:27:43;;;;;;;29.13;12.53;;;;;;;3.55;100.00;100533.72;5096783;28;20468;-76
2022/11/24 08:30:12;;;;;;;27.80;11.03;;;;;;;3.58;100.00;100533.19;5096827;28;21049;-74
2022/11/24 08:32:39;;;;;;;28.03;11.17;;;;;;;3.64;100.00;100528.69;5096642;28;20554;-76
2022/11/24 08:35:06;;;;;;;24.90;12.53;;;;;;;3.71;100.00;100529.28;5096490;28;20535;-77
2022/11/24 08:37:33;;;;;;;25.53;11.83;;;;;;;3.71;100.00;100527.41;5096318;28;21042;-76
2022/11/24 08:39:59;;;;;;;26.40;11.20;;;;;;;3.80;100.00;100528.53;5097347;28;20526;-78
2022/11/24 08:42:26;;;;;;;26.53;11.03;;;;;;;3.89;100.00;100522.69;5097490;28;20446;-77
2022/11/24 08:44:53;;;;;;;24.20;11.73;;;;;;;3.93;100.00;100529.16;5098318;28;20467;-74
2022/11/24 08:47:21;;;;;;;25.47;11.93;;;;;;;3.99;100.00;100538.88;5096743;28;20538;-76
2022/11/24 08:49:48;;;;;;;23.83;12.00;;;;;;;4.03;100.00;100546.13;5097353;28;20448;-78
2022/11/24 08:52:16;;;;;;;26.67;11.87;;;;;;;3.97;100.00;100552.50;5095928;28;20455;-76
2022/11/24 08:54:43;;;;;;;30.53;12.07;;;;;;;3.89;100.00;100560.22;5108733;28;20542;-75
2022/11/24 08:57:10;;;;;;;25.63;11.00;;;;;;;3.83;100.00;100561.25;5116777;28;20447;-76
2022/11/24 08:59:37;;;;;;;25.93;11.33;;;;;;;3.83;100.00;100558.56;5116583;28;20491;-75
2022/11/24 09:02:04;;;;;;;29.73;11.30;;;;;;;3.83;100.00;100556.69;5100180;28;20528;-77
2022/11/24 09:04:32;;;;;;;27.80;12.33;;;;;;;3.79;100.00;100552.91;5111257;28;20885;-75
2022/11/24 09:06:59;;;;;;;26.60;11.30;;;;;;;3.85;100.00;100564.47;5117567;28;20518;-74
2022/11/24 09:09:26;;;;;;;29.90;12.00;;;;;;;3.89;100.00;100550.28;5116266;28;20991;-76
2022/11/24 09:11:53;;;;;;;32.80;12.13;;;;;;;3.99;100.00;100554.94;5117778;28;20542;-78
2022/11/24 09:14:19;;;;;;;21.27;9.97;;;;;;;4.09;100.00;100557.69;5117211;28;20502;-77
2022/11/24 09:16:46;;;;;;;24.23;10.03;;;;;;;4.19;100.00;100557.72;5117121;28;20444;-76
2022/11/24 09:19:12;;;;;;;23.20;11.27;;;;;;;4.22;100.00;100546.50;5115536;28;20540;-77
2022/11/24 09:21:40;;;;;;;25.77;11.47;;;;;;;4.26;100.00;100558.31;5096391;28;20531;-77
2022/11/24 09:24:09;;;;;;;23.30;11.57;;;;;;;4.29;100.00;100563.19;5096481;28;20472;-74
2022/11/24 09:26:37;;;;;;;21.90;10.50;;;;;;;4.39;100.00;100567.78;5095850;28;20494;-75
2022/11/24 09:29:06;;;;;;;20.90;9.30;;;;;;;4.39;100.00;100575.03;5095988;28;20563;-74
2022/11/24 09:31:35;;;;;;;22.97;10.80;;;;;;;4.56;100.00;100581.00;5112492;28;20447;-76
2022/11/24 09:34:04;;;;;;;23.30;10.63;;;;;;;4.62;100.00;100590.69;5110097;28;20539;-76
2022/11/24 09:36:31;;;;;;;22.70;9.97;;;;;;;4.57;100.00;100595.22;5096239;28;20521;-76
2022/11/24 09:38:59;;;;;;;25.97;11.20;;;;;;;4.64;100.00;100596.59;5103253;28;20507;-78
2022/11/24 09:41:46;;;;;;;22.40;9.67;;;;;;;4.65;100.00;100592.03;5116467;28;20899;-76
2022/11/24 09:44:38;;;;;;;22.40;10.67;;;;;;;4.62;99.60;100579.97;5113613;28;20478;-76
2022/11/24 09:47:14;;;;;;;25.33;11.37;;;;;;;4.72;99.26;100581.88;5108983;28;20519;-75
2022/11/24 09:49:48;;;;;;;23.10;10.57;;;;;;;4.79;98.63;100579.78;5095872;28;20482;-76
2022/11/24 09:52:18;;;;;;;30.30;11.73;;;;;;;4.93;98.59;100585.44;5103117;28;20750;-75
2022/11/24 09:54:52;;;;;;;26.10;11.03;;;;;;;5.01;99.02;100580.38;5103224;28;20488;-75
2022/11/24 09:57:24;;;;;;;27.13;11.50;;;;;;;5.20;98.62;100580.69;5095518;28;20475;-75
2022/11/24 09:59:50;;;;;;;28.20;11.03;;;;;;;5.20;97.72;100586.06;5095920;28;21022;-78
2022/11/24 10:02:17;;;;;;;27.87;12.20;;;;;;;5.36;98.07;100588.75;5095063;28;20582;-74
2022/11/24 10:04:46;;;;;;;20.43;10.17;;;;;;;5.36;97.00;100597.66;5095572;28;20543;-76
2022/11/24 10:07:23;;;;;;;24.77;10.80;;;;;;;5.42;97.39;100593.91;5094072;28;20484;-77
2022/11/24 10:09:59;;;;;;;26.30;12.17;;;;;;;5.43;96.97;100589.31;5094405;28;20421;-74
2022/11/24 10:12:37;;;;;;;28.40;12.00;;;;;;;5.50;97.41;100584.50;5094427;28;20550;-75
2022/11/24 10:15:37;;;;;;;24.00;11.40;;;;;;;5.49;95.84;100593.63;5094980;28;20485;-77
2022/11/24 10:18:29;;;;;;;30.83;12.93;;;;;;;5.61;95.43;100596.88;5094775;28;20468;-76
2022/11/24 10:21:09;;;;;;;21.43;11.23;;;;;;;5.67;94.83;100603.88;5094662;28;20544;-76
2022/11/24 10:23:59;;;;;;;23.00;11.50;;;;;;;5.76;94.29;100602.25;5094576;28;20507;-76
2022/11/24 10:26:34;;;;;;;28.03;10.93;;;;;;;5.78;94.59;100602.78;5095189;28;20519;-77
2022/11/24 10:29:08;;;;;;;22.93;10.63;;;;;;;5.83;94.72;100613.53;5095375;28;20543;-77
2022/11/24 10:31:37;;;;;;;25.80;12.33;;;;;;;5.89;94.59;100608.16;5094099;28;20524;-75
2022/11/24 10:34:14;;;;;;;26.07;11.57;;;;;;;5.82;94.33;100600.38;5094616;28;20464;-77
2022/11/24 10:36:48;;;;;;;21.70;10.60;;;;;;;5.92;94.61;100605.78;5094677;28;20511;-77
2022/11/24 10:39:20;;;;;;;21.40;10.03;;;;;;;5.99;94.29;100603.63;5094477;28;20571;-75
2022/11/24 10:41:52;;;;;;;25.67;11.97;;;;;;;6.05;94.22;100601.72;5094928;28;20504;-77
2022/11/24 10:44:19;;;;;;;26.40;12.03;;;;;;;6.02;94.20;100602.28;5094436;28;20439;-76
2022/11/24 10:46:45;;;;;;;24.67;10.60;;;;;;;6.02;94.93;100604.97;5093766;28;20879;-75
2022/11/24 10:49:19;;;;;;;23.33;10.10;;;;;;;6.12;94.69;100601.47;5093676;28;20476;-76
2022/11/24 10:52:00;;;;;;;30.37;11.80;;;;;;;6.14;94.61;100618.94;5093331;28;20535;-76
2022/11/24 10:54:28;;;;;;;35.37;11.70;;;;;;;6.15;94.34;100623.22;5093728;28;20966;-76
2022/11/24 10:56:56;;;;;;;23.40;11.60;;;;;;;6.25;94.34;100627.81;5093186;28;20959;-76
2022/11/24 10:59:35;;;;;;;21.90;10.00;;;;;;;6.21;93.75;100624.84;5103392;28;20483;-76
2022/11/24 11:02:03;;;;;;;31.13;12.00;;;;;;;6.12;93.74;100628.38;5094813;28;20459;-78
2022/11/24 11:04:31;;;;;;;29.40;10.83;;;;;;;5.99;94.18;100629.72;5098825;28;20491;-78
2022/11/24 11:07:17;;;;;;;23.67;11.10;;;;;;;5.85;94.64;100624.03;5109833;28;20483;-77
2022/11/24 11:09:44;;;;;;;22.40;11.40;;;;;;;5.82;95.48;100614.63;5115213;28;20420;-78
2022/11/24 11:12:20;;;;;;;28.73;11.70;;;;;;;5.81;96.01;100623.75;5114870;28;20534;-78
2022/11/24 11:14:47;;;;;;;21.90;10.50;;;;;;;6.03;96.02;100620.84;5115056;28;20432;-76
2022/11/24 11:17:41;;;;;;;29.40;11.43;;;;;;;6.06;95.13;100614.09;5113578;28;20929;-76
2022/11/24 11:20:18;;;;;;;31.10;12.30;;;;;;;6.19;94.85;100613.53;5078152;28;20487;-77